Talmaciu, Romania
Current Conditions -  °F | °C
As of 8:30 AM on Thursday 27 Nov 2014 (Local Time) from LRSB Reporting Station
Light Snow Light Snow  
Wind Chill: 23°   Ceiling: 200
Heat Index: 23°   Visibility: 0.12mi
Dew Point: 21°   Wind: 2mph
Humidity: 93%   Direction: NA
Pressure: 30.18"   Gusts: NA
Location:  45.68°N, 24.27°E
Report Text: LRSB 270530Z VRB02KT 0200 R27/0650N -SG FZFG BKN002 OVC003M05/M06 Q1022 R27/450194
Loading
Personal Weather Stations






























Interactive Weather Map New forecast layout! Learn more

10-Day Weather Forecast

Advertisements
Track Severe Weather on mobile